createdAt,value
2022-11-08T00:00:09.787Z,26.98
2022-11-08T00:02:37.104Z,25.23
2022-11-08T00:05:23.036Z,25.00
2022-11-08T00:08:08.995Z,26.17
2022-11-08T00:10:54.415Z,24.40
2022-11-08T00:13:39.890Z,25.60
2022-11-08T00:16:07.010Z,26.27
2022-11-08T00:18:33.974Z,26.60
2022-11-08T00:21:02.844Z,26.08
2022-11-08T00:23:29.842Z,27.70
2022-11-08T00:25:56.984Z,26.33
2022-11-08T00:28:24.214Z,27.08
2022-11-08T00:30:51.096Z,26.13
2022-11-08T00:33:18.140Z,25.38
2022-11-08T00:35:44.988Z,25.15
2022-11-08T00:38:11.955Z,26.52
2022-11-08T00:40:41.290Z,26.67
2022-11-08T00:43:08.254Z,26.63
2022-11-08T00:45:36.198Z,26.65
2022-11-08T00:48:03.309Z,28.20
2022-11-08T00:50:30.119Z,28.13
2022-11-08T00:52:57.118Z,29.45
2022-11-08T00:55:23.980Z,30.10
2022-11-08T00:57:59.730Z,30.05
2022-11-08T01:00:27.815Z,33.45
2022-11-08T01:03:14.832Z,31.10
2022-11-08T01:05:41.987Z,31.02
2022-11-08T01:08:10.201Z,29.67
2022-11-08T01:10:40.430Z,29.15
2022-11-08T01:13:07.717Z,29.63
2022-11-08T01:15:36.562Z,29.55
2022-11-08T01:18:04.890Z,29.63
2022-11-08T01:20:32.300Z,30.33
2022-11-08T01:22:59.428Z,32.10
2022-11-08T01:25:26.337Z,30.13
2022-11-08T01:27:53.253Z,29.65
2022-11-08T01:30:20.118Z,29.65
2022-11-08T01:32:47.223Z,31.25
2022-11-08T01:35:14.391Z,29.23
2022-11-08T01:37:41.221Z,31.65
2022-11-08T01:40:08.993Z,31.02
2022-11-08T01:42:35.806Z,30.15
2022-11-08T01:45:08.900Z,31.77
2022-11-08T01:47:36.043Z,30.60
2022-11-08T01:50:16.869Z,29.92
2022-11-08T01:52:48.679Z,30.38
2022-11-08T01:55:37.113Z,29.58
2022-11-08T01:58:10.297Z,32.17
2022-11-08T02:00:39.709Z,30.08
2022-11-08T02:03:11.615Z,30.73
2022-11-08T02:05:40.177Z,30.20
2022-11-08T02:08:18.356Z,29.87
2022-11-08T02:10:51.880Z,30.15
2022-11-08T02:13:22.131Z,31.80
2022-11-08T02:15:49.445Z,28.08
2022-11-08T02:18:18.417Z,30.95
2022-11-08T02:20:58.754Z,30.98
2022-11-08T02:23:47.345Z,29.05
2022-11-08T02:26:16.178Z,31.57
2022-11-08T02:28:45.499Z,29.40
2022-11-08T02:33:41.283Z,28.98
2022-11-08T02:36:10.233Z,28.63
2022-11-08T02:38:43.026Z,29.27
2022-11-08T02:41:10.055Z,30.20
2022-11-08T02:43:37.237Z,28.20
2022-11-08T02:46:04.463Z,29.73
2022-11-08T02:48:31.301Z,29.60
2022-11-08T02:50:58.459Z,30.10
2022-11-08T02:53:26.107Z,29.63
2022-11-08T02:55:53.461Z,28.52
2022-11-08T02:58:23.571Z,29.60
2022-11-08T03:00:50.618Z,28.80
2022-11-08T03:03:17.468Z,29.20
2022-11-08T03:05:47.761Z,30.10
2022-11-08T03:08:15.889Z,32.13
2022-11-08T03:10:43.330Z,31.60
2022-11-08T03:13:11.289Z,30.92
2022-11-08T03:15:39.749Z,30.02
2022-11-08T03:18:06.801Z,30.87
2022-11-08T03:20:33.858Z,27.60
2022-11-08T03:23:06.705Z,28.70
2022-11-08T03:25:36.770Z,28.52
2022-11-08T03:28:09.215Z,29.42
2022-11-08T03:30:36.895Z,29.35
2022-11-08T03:33:04.209Z,30.05
2022-11-08T03:35:32.116Z,29.30
2022-11-08T03:37:59.243Z,29.60
2022-11-08T03:40:26.575Z,29.33
2022-11-08T03:42:55.518Z,28.80
2022-11-08T03:45:22.829Z,28.75
2022-11-08T03:47:49.627Z,30.65
2022-11-08T03:50:16.985Z,29.98
2022-11-08T03:52:52.114Z,30.77
2022-11-08T03:55:21.248Z,30.92
2022-11-08T03:57:49.433Z,30.67
2022-11-08T04:00:20.386Z,31.75
2022-11-08T04:02:48.135Z,30.38
2022-11-08T04:05:16.071Z,31.27
2022-11-08T04:07:43.505Z,32.63
2022-11-08T04:10:11.570Z,31.58
2022-11-08T04:13:01.307Z,31.67
2022-11-08T04:15:30.059Z,30.13
2022-11-08T04:18:17.106Z,31.55
2022-11-08T04:21:05.768Z,31.25
2022-11-08T04:23:34.836Z,30.25
2022-11-08T04:26:05.540Z,30.92
2022-11-08T04:28:36.832Z,29.95
2022-11-08T04:31:15.464Z,31.70
2022-11-08T04:33:43.027Z,29.88
2022-11-08T04:36:16.299Z,29.75
2022-11-08T04:38:43.728Z,30.52
2022-11-08T04:41:15.089Z,30.23
2022-11-08T04:43:42.554Z,30.95
2022-11-08T04:46:13.587Z,29.73
2022-11-08T04:48:41.048Z,31.27
2022-11-08T04:51:23.147Z,32.30
2022-11-08T04:53:50.294Z,29.55
2022-11-08T04:56:20.101Z,29.88
2022-11-08T04:58:49.548Z,30.25
2022-11-08T05:01:19.155Z,31.35
2022-11-08T05:03:47.754Z,30.65
2022-11-08T05:06:26.128Z,29.52
2022-11-08T05:08:55.156Z,31.50
2022-11-08T05:11:24.573Z,30.05
2022-11-08T05:13:54.078Z,31.23
2022-11-08T05:16:24.299Z,30.38
2022-11-08T05:18:52.074Z,30.75
2022-11-08T05:21:39.745Z,29.90
2022-11-08T05:24:08.822Z,31.08
2022-11-08T05:26:37.888Z,30.90
2022-11-08T05:29:05.659Z,32.45
2022-11-08T05:31:32.908Z,30.65
2022-11-08T05:34:00.868Z,31.67
2022-11-08T05:36:28.730Z,33.42
2022-11-08T05:38:57.437Z,30.42
2022-11-08T05:41:29.803Z,30.63
2022-11-08T05:43:57.964Z,32.35
2022-11-08T05:46:25.479Z,31.90
2022-11-08T05:48:52.948Z,30.50
2022-11-08T05:51:20.181Z,31.88
2022-11-08T05:53:48.637Z,31.15
2022-11-08T05:56:16.872Z,30.75
2022-11-08T05:58:44.858Z,31.27
2022-11-08T06:01:17.688Z,32.60
2022-11-08T06:03:45.622Z,30.52
2022-11-08T06:06:16.229Z,30.90
2022-11-08T06:08:48.918Z,30.45
2022-11-08T06:11:23.463Z,30.27
2022-11-08T06:13:51.123Z,31.13
2022-11-08T06:16:19.185Z,30.45
2022-11-08T06:18:47.070Z,29.75
2022-11-08T06:21:16.853Z,29.10
2022-11-08T06:23:44.049Z,29.88
2022-11-08T06:26:11.659Z,28.55
2022-11-08T06:28:38.546Z,28.20
2022-11-08T06:31:06.072Z,28.65
2022-11-08T06:33:33.202Z,28.98
2022-11-08T06:36:00.301Z,28.23
2022-11-08T06:38:27.279Z,29.35
2022-11-08T06:40:54.282Z,29.15
2022-11-08T06:43:21.530Z,28.73
2022-11-08T06:45:48.863Z,29.10
2022-11-08T06:48:16.074Z,29.65
2022-11-08T06:50:43.979Z,29.58
2022-11-08T06:53:13.132Z,29.00
2022-11-08T06:58:07.512Z,26.45
2022-11-08T07:00:34.349Z,27.77
2022-11-08T07:03:03.873Z,29.98
2022-11-08T07:05:33.109Z,28.70
2022-11-08T07:08:01.448Z,27.60
2022-11-08T07:10:31.545Z,28.27
2022-11-08T07:12:59.261Z,28.50
2022-11-08T07:15:26.185Z,26.33
2022-11-08T07:17:53.337Z,25.75
2022-11-08T07:20:22.300Z,24.45
2022-11-08T07:22:49.348Z,25.67
2022-11-08T07:25:16.502Z,26.20
2022-11-08T07:27:43.605Z,27.10
2022-11-08T07:30:11.035Z,26.58
2022-11-08T07:32:37.972Z,30.45
2022-11-08T07:35:05.402Z,28.70
2022-11-08T07:37:33.423Z,26.13
2022-11-08T07:40:00.229Z,26.83
2022-11-08T07:42:38.390Z,27.83
2022-11-08T07:45:14.504Z,28.02
2022-11-08T07:47:41.318Z,28.25
2022-11-08T07:50:09.171Z,27.90
2022-11-08T07:52:36.185Z,28.42
2022-11-08T07:55:03.532Z,29.77
2022-11-08T07:57:30.397Z,27.70
2022-11-08T07:59:57.655Z,25.67
2022-11-08T08:02:25.292Z,25.45
2022-11-08T08:04:52.367Z,25.50
2022-11-08T08:07:22.105Z,26.02
2022-11-08T08:09:49.685Z,25.63
2022-11-08T08:12:16.516Z,25.23
2022-11-08T08:14:43.382Z,24.75
2022-11-08T08:17:10.726Z,26.13
2022-11-08T08:19:37.648Z,26.08
2022-11-08T08:22:04.594Z,25.48
2022-11-08T08:24:33.106Z,26.05
2022-11-08T08:27:00.002Z,27.58
2022-11-08T08:29:27.174Z,27.08
2022-11-08T08:31:54.250Z,25.73
2022-11-08T08:34:21.190Z,28.88
2022-11-08T08:36:48.112Z,31.35
2022-11-08T08:39:15.235Z,28.77
2022-11-08T08:41:42.412Z,26.85
2022-11-08T08:44:10.884Z,26.52
2022-11-08T08:46:37.961Z,27.08
2022-11-08T08:49:04.865Z,27.33
2022-11-08T08:51:31.822Z,23.75
2022-11-08T08:53:58.958Z,24.88
2022-11-08T08:56:26.020Z,23.10
2022-11-08T09:01:39.926Z,23.50
2022-11-08T09:04:07.108Z,23.85
2022-11-08T09:06:34.223Z,24.80
2022-11-08T09:09:01.167Z,24.17
2022-11-08T09:11:28.039Z,23.52
2022-11-08T09:13:55.106Z,23.08
2022-11-08T09:16:22.590Z,22.52
2022-11-08T09:18:49.544Z,22.80
2022-11-08T09:21:16.555Z,22.02
2022-11-08T09:23:44.246Z,22.08
2022-11-08T09:26:12.682Z,21.88
2022-11-08T09:28:39.596Z,21.77
2022-11-08T09:31:09.683Z,22.02
2022-11-08T09:33:38.610Z,21.65
2022-11-08T09:36:07.546Z,21.00
2022-11-08T09:38:34.643Z,21.63
2022-11-08T09:41:04.558Z,22.00
2022-11-08T09:44:28.938Z,20.63
2022-11-08T09:46:57.864Z,21.48
2022-11-08T09:49:36.220Z,22.75
2022-11-08T09:52:05.121Z,20.55
2022-11-08T09:54:40.296Z,21.90
2022-11-08T09:57:20.379Z,21.38
2022-11-08T09:59:53.009Z,22.63
2022-11-08T10:02:22.857Z,22.88
2022-11-08T10:05:17.108Z,23.83
2022-11-08T10:07:57.800Z,22.15
2022-11-08T10:10:28.126Z,24.13
2022-11-08T10:13:26.985Z,23.88
2022-11-08T10:16:15.533Z,23.55
2022-11-08T10:18:48.601Z,23.65
2022-11-08T10:21:33.149Z,23.88
2022-11-08T10:24:13.011Z,22.55
2022-11-08T10:26:45.798Z,23.77
2022-11-08T10:29:24.702Z,22.17
2022-11-08T10:32:18.470Z,20.25
2022-11-08T10:35:18.772Z,22.73
2022-11-08T10:37:52.011Z,22.05
2022-11-08T10:40:31.463Z,21.42
2022-11-08T10:43:17.417Z,25.67
2022-11-08T10:45:44.605Z,21.15
2022-11-08T10:48:12.449Z,20.45
2022-11-08T10:50:44.373Z,21.25
2022-11-08T10:53:26.112Z,21.60
2022-11-08T10:56:06.113Z,21.85
2022-11-08T10:58:43.955Z,20.20
2022-11-08T11:01:14.828Z,22.42
2022-11-08T11:03:42.339Z,20.35
2022-11-08T11:06:24.642Z,19.35
2022-11-08T11:08:56.148Z,20.85
2022-11-08T11:11:31.501Z,19.30
2022-11-08T11:14:22.241Z,20.58
2022-11-08T11:17:01.162Z,19.63
2022-11-08T11:19:29.473Z,19.73
2022-11-08T11:22:06.143Z,18.73
2022-11-08T11:24:36.294Z,18.20
2022-11-08T11:27:18.884Z,18.92
2022-11-08T11:29:45.748Z,17.85
2022-11-08T11:32:25.350Z,17.33
2022-11-08T11:34:56.268Z,15.77
2022-11-08T11:37:29.657Z,15.32
2022-11-08T11:40:16.266Z,15.88
2022-11-08T11:43:12.550Z,16.67
2022-11-08T11:45:50.476Z,17.40
2022-11-08T11:48:21.939Z,13.45
2022-11-08T11:50:50.616Z,13.93
2022-11-08T11:53:24.699Z,14.25
2022-11-08T11:56:13.515Z,13.88
2022-11-08T11:58:44.171Z,15.20
2022-11-08T12:01:22.413Z,15.23
2022-11-08T12:04:27.062Z,14.38
2022-11-08T12:07:22.230Z,14.00
2022-11-08T12:10:10.955Z,14.25
2022-11-08T12:13:19.631Z,14.30
2022-11-08T12:16:01.206Z,14.15
2022-11-08T12:18:43.087Z,14.63
2022-11-08T12:21:34.657Z,14.15
2022-11-08T12:24:15.612Z,15.10
2022-11-08T12:27:00.312Z,14.65
2022-11-08T12:29:31.374Z,13.45
2022-11-08T12:32:36.843Z,12.85
2022-11-08T12:35:22.487Z,12.63
2022-11-08T12:38:31.340Z,13.55
2022-11-08T12:41:22.200Z,13.02
2022-11-08T12:44:04.382Z,13.60
2022-11-08T12:46:40.791Z,13.02
2022-11-08T12:49:32.782Z,12.52
2022-11-08T12:51:59.646Z,12.90
2022-11-08T12:54:36.219Z,13.60
2022-11-08T12:57:10.207Z,13.40
2022-11-08T12:59:42.936Z,13.30
2022-11-08T13:02:27.741Z,12.80
2022-11-08T13:05:01.822Z,13.20
2022-11-08T13:07:51.308Z,12.95
2022-11-08T13:10:53.261Z,13.47
2022-11-08T13:13:28.473Z,13.32
2022-11-08T13:16:12.581Z,13.23
2022-11-08T13:18:58.034Z,13.45
2022-11-08T13:21:28.084Z,12.65
2022-11-08T13:24:09.778Z,12.95
2022-11-08T13:26:43.302Z,13.63
2022-11-08T13:29:16.394Z,14.18
2022-11-08T13:31:56.826Z,13.23
2022-11-08T13:34:45.677Z,12.68
2022-11-08T13:37:19.066Z,16.65
2022-11-08T13:40:08.146Z,13.25
2022-11-08T13:42:50.195Z,14.05
2022-11-08T13:45:17.022Z,13.98
2022-11-08T13:47:44.271Z,13.02
2022-11-08T13:50:30.258Z,13.10
2022-11-08T13:53:19.101Z,14.35
2022-11-08T13:55:50.771Z,13.15
2022-11-08T13:58:36.231Z,13.68
2022-11-08T14:01:07.780Z,13.60
2022-11-08T14:03:34.840Z,12.95
2022-11-08T14:06:31.286Z,13.25
2022-11-08T14:09:01.145Z,14.88
2022-11-08T14:12:00.574Z,14.00
2022-11-08T14:14:33.974Z,13.88
2022-11-08T14:17:03.993Z,14.68
2022-11-08T14:19:39.537Z,14.18
2022-11-08T14:22:20.443Z,13.65
2022-11-08T14:24:54.829Z,14.02
2022-11-08T14:27:40.828Z,12.88
2022-11-08T14:30:19.973Z,12.48
2022-11-08T14:32:48.535Z,14.57
2022-11-08T14:35:28.417Z,18.83
2022-11-08T14:37:55.583Z,19.48
2022-11-08T14:40:29.018Z,18.05
2022-11-08T14:42:56.974Z,15.70
2022-11-08T14:45:28.951Z,15.68
2022-11-08T14:48:04.799Z,14.73
2022-11-08T14:50:34.632Z,15.13
2022-11-08T14:53:26.513Z,14.52
2022-11-08T14:56:15.670Z,13.68
2022-11-08T15:01:11.401Z,14.82
2022-11-08T15:03:39.249Z,13.52
2022-11-08T15:06:13.612Z,15.25
2022-11-08T15:08:54.767Z,15.18
2022-11-08T15:11:52.626Z,15.80
2022-11-08T15:14:23.429Z,16.47
2022-11-08T15:16:56.330Z,16.10
2022-11-08T15:19:46.664Z,15.65
2022-11-08T15:22:29.838Z,15.30
2022-11-08T15:25:23.807Z,14.63
2022-11-08T15:27:56.269Z,15.48
2022-11-08T15:30:34.188Z,15.85
2022-11-08T15:33:03.452Z,15.68
2022-11-08T15:35:35.234Z,15.30
2022-11-08T15:38:05.236Z,16.15
2022-11-08T15:40:35.970Z,15.02
2022-11-08T15:43:03.804Z,16.52
2022-11-08T15:45:35.400Z,16.17
2022-11-08T15:48:19.860Z,14.88
2022-11-08T15:50:47.623Z,15.43
2022-11-08T15:53:15.268Z,16.02
2022-11-08T15:56:01.993Z,16.02
2022-11-08T15:58:34.996Z,15.88
2022-11-08T16:01:04.268Z,15.52
2022-11-08T16:03:31.582Z,16.50
2022-11-08T16:05:58.419Z,15.95
2022-11-08T16:08:26.275Z,15.82
2022-11-08T16:10:57.702Z,17.02
2022-11-08T16:13:34.311Z,16.92
2022-11-08T16:16:03.791Z,17.02
2022-11-08T16:18:34.570Z,15.82
2022-11-08T16:21:01.748Z,17.10
2022-11-08T16:23:28.705Z,16.33
2022-11-08T16:25:57.154Z,17.90
2022-11-08T16:28:36.326Z,18.10
2022-11-08T16:31:05.512Z,18.33
2022-11-08T16:33:34.857Z,16.55
2022-11-08T16:36:09.571Z,18.13
2022-11-08T16:38:38.566Z,17.23
2022-11-08T16:41:05.999Z,17.75
2022-11-08T16:43:33.672Z,18.13
2022-11-08T16:46:06.865Z,17.85
2022-11-08T16:48:38.398Z,18.52
2022-11-08T16:51:13.147Z,18.30
2022-11-08T16:53:40.141Z,17.38
2022-11-08T16:56:06.979Z,18.85
2022-11-08T16:58:34.094Z,19.65
2022-11-08T17:01:03.869Z,19.90
2022-11-08T17:03:35.117Z,19.70
2022-11-08T17:06:02.315Z,19.48
2022-11-08T17:08:29.305Z,18.38
2022-11-08T17:10:56.438Z,20.08
2022-11-08T17:13:23.407Z,20.27
2022-11-08T17:15:51.050Z,19.58
2022-11-08T17:18:21.617Z,19.77
2022-11-08T17:20:49.445Z,19.52
2022-11-08T17:23:16.697Z,21.75
2022-11-08T17:25:44.714Z,22.45
2022-11-08T17:28:12.582Z,22.35
2022-11-08T17:30:44.646Z,21.75
2022-11-08T17:33:13.296Z,22.10
2022-11-08T17:35:43.862Z,21.92
2022-11-08T17:38:12.687Z,21.58
2022-11-08T17:40:42.568Z,22.52
2022-11-08T17:43:09.802Z,21.58
2022-11-08T17:45:36.873Z,22.85
2022-11-08T17:48:03.922Z,21.40
2022-11-08T17:50:30.919Z,21.02
2022-11-08T17:52:57.784Z,21.13
2022-11-08T17:55:26.730Z,20.40
2022-11-08T17:57:53.588Z,19.75
2022-11-08T18:00:21.168Z,20.92
2022-11-08T18:02:48.180Z,16.65
2022-11-08T18:05:15.096Z,17.60
2022-11-08T18:07:42.407Z,17.75
2022-11-08T18:10:09.999Z,16.85
2022-11-08T18:12:37.104Z,17.70
2022-11-08T18:15:05.409Z,15.50
2022-11-08T18:17:32.211Z,17.30
2022-11-08T18:19:59.123Z,17.73
2022-11-08T18:22:26.061Z,18.23
2022-11-08T18:24:52.967Z,17.15
2022-11-08T18:27:19.810Z,17.13
2022-11-08T18:29:46.649Z,17.42
2022-11-08T18:32:13.516Z,16.85
2022-11-08T18:34:40.587Z,17.58
2022-11-08T18:37:07.533Z,18.30
2022-11-08T18:39:34.626Z,18.95
2022-11-08T18:42:01.562Z,18.70
2022-11-08T18:44:28.494Z,18.42
2022-11-08T18:46:55.539Z,16.95
2022-11-08T18:49:22.573Z,17.13
2022-11-08T18:51:52.692Z,17.05
2022-11-08T18:54:20.206Z,18.15
2022-11-08T18:56:47.005Z,18.20
2022-11-08T18:59:14.480Z,17.77
2022-11-08T19:01:41.611Z,18.08
2022-11-08T19:04:08.487Z,18.23
2022-11-08T19:06:35.497Z,17.85
2022-11-08T19:09:02.672Z,17.85
2022-11-08T19:11:30.715Z,19.40
2022-11-08T19:13:58.280Z,19.08
2022-11-08T19:16:25.413Z,18.63
2022-11-08T19:18:52.747Z,19.65
2022-11-08T19:21:21.000Z,19.90
2022-11-08T19:23:49.362Z,20.77
2022-11-08T19:26:22.098Z,22.25
2022-11-08T19:28:49.713Z,23.52
2022-11-08T19:31:19.296Z,22.08
2022-11-08T19:33:47.681Z,22.00
2022-11-08T19:36:23.687Z,23.58
2022-11-08T19:38:52.178Z,23.58
2022-11-08T19:41:21.954Z,25.88
2022-11-08T19:43:49.837Z,24.55
2022-11-08T19:46:19.950Z,34.67
2022-11-08T19:48:49.506Z,27.40
2022-11-08T19:51:22.217Z,23.95
2022-11-08T19:53:50.153Z,21.48
2022-11-08T19:56:19.325Z,24.27
2022-11-08T19:58:47.697Z,27.48
2022-11-08T20:01:18.735Z,24.13
2022-11-08T20:03:46.472Z,24.33
2022-11-08T20:06:16.951Z,24.23
2022-11-08T20:08:53.431Z,23.45
2022-11-08T20:11:26.128Z,22.27
2022-11-08T20:13:54.315Z,23.05
2022-11-08T20:16:24.187Z,23.17
2022-11-08T20:18:51.076Z,22.23
2022-11-08T20:21:18.327Z,24.65
2022-11-08T20:23:46.506Z,24.90
2022-11-08T20:26:18.440Z,23.15
2022-11-08T20:28:55.808Z,24.30
2022-11-08T20:31:24.539Z,22.05
2022-11-08T20:33:53.147Z,23.45
2022-11-08T20:36:23.274Z,23.73
2022-11-08T20:38:54.185Z,23.40
2022-11-08T20:41:21.207Z,24.30
2022-11-08T20:43:48.106Z,24.48
2022-11-08T20:46:18.384Z,26.73
2022-11-08T20:48:50.659Z,25.08
2022-11-08T20:51:19.777Z,26.92
2022-11-08T20:53:47.952Z,27.35
2022-11-08T20:56:18.266Z,27.10
2022-11-08T20:58:46.807Z,27.92
2022-11-08T21:01:17.781Z,27.70
2022-11-08T21:03:49.113Z,26.98
2022-11-08T21:06:20.092Z,26.77
2022-11-08T21:09:14.428Z,27.45
2022-11-08T21:11:35.543Z,25.77
2022-11-08T21:14:04.177Z,24.35
2022-11-08T21:16:38.633Z,23.30
2022-11-08T21:19:14.598Z,25.08
2022-11-08T21:21:41.634Z,24.45
2022-11-08T21:24:08.741Z,23.02
2022-11-08T21:26:36.879Z,24.88
2022-11-08T21:31:36.048Z,25.35
2022-11-08T21:34:02.901Z,25.42
2022-11-08T21:36:29.926Z,24.77
2022-11-08T21:38:56.870Z,26.77
2022-11-08T21:41:23.763Z,26.48
2022-11-08T21:43:50.630Z,28.25
2022-11-08T21:46:23.635Z,31.38
2022-11-08T21:48:55.760Z,32.35
2022-11-08T21:51:23.435Z,31.10
2022-11-08T21:53:55.772Z,29.73
2022-11-08T21:56:24.990Z,27.80
2022-11-08T21:58:52.522Z,29.42
2022-11-08T22:01:19.821Z,29.77
2022-11-08T22:03:47.198Z,29.00
2022-11-08T22:06:14.286Z,27.38
2022-11-08T22:08:41.304Z,29.27
2022-11-08T22:11:08.148Z,29.85
2022-11-08T22:13:35.442Z,27.38
2022-11-08T22:16:02.293Z,27.83
2022-11-08T22:18:58.761Z,28.00
2022-11-08T22:21:34.644Z,29.45
2022-11-08T22:24:02.095Z,26.73
2022-11-08T22:26:28.911Z,26.95
2022-11-08T22:28:56.096Z,26.77
2022-11-08T22:31:22.933Z,27.05
2022-11-08T22:33:49.975Z,27.52
2022-11-08T22:36:20.625Z,29.02
2022-11-08T22:38:48.189Z,26.27
2022-11-08T22:41:17.110Z,27.73
2022-11-08T22:43:44.796Z,27.63
2022-11-08T22:46:12.753Z,28.05
2022-11-08T22:48:40.145Z,26.98
2022-11-08T22:51:07.811Z,30.20
2022-11-08T22:53:35.100Z,28.77
2022-11-08T22:56:04.535Z,28.40
2022-11-08T22:58:35.391Z,26.83
2022-11-08T23:01:14.473Z,26.65
2022-11-08T23:03:44.886Z,27.70
2022-11-08T23:06:12.560Z,26.88
2022-11-08T23:08:39.601Z,27.42
2022-11-08T23:11:25.728Z,27.65
2022-11-08T23:14:11.426Z,25.67
2022-11-08T23:16:41.358Z,26.13
2022-11-08T23:19:35.869Z,26.08
2022-11-08T23:22:23.475Z,26.42
2022-11-08T23:24:50.506Z,27.48
2022-11-08T23:27:39.318Z,26.02
2022-11-08T23:30:27.277Z,27.38
2022-11-08T23:32:55.866Z,26.35
2022-11-08T23:35:24.276Z,26.48
2022-11-08T23:37:51.336Z,26.05
2022-11-08T23:40:38.382Z,25.17
2022-11-08T23:43:31.623Z,26.73
2022-11-08T23:46:04.267Z,25.35
2022-11-08T23:48:31.333Z,26.55
2022-11-08T23:50:58.247Z,26.27
2022-11-08T23:53:25.401Z,25.98
2022-11-08T23:55:55.954Z,25.83
2022-11-08T23:58:23.712Z,26.70
